sensor_id;sensor_type;location;lat;lon;timestamp;pressure;altitude;pressure_sealevel;temperature;humidity
48244;BME280;34053;51.088;6.572;2022-09-30T00:02:05;100225.31;;;9.67;63.83
48244;BME280;34053;51.088;6.572;2022-09-30T00:04:36;100220.16;;;9.64;64.34
48244;BME280;34053;51.088;6.572;2022-09-30T00:07:07;100218.44;;;9.63;64.06
48244;BME280;34053;51.088;6.572;2022-09-30T00:09:37;100233.16;;;9.67;63.91
48244;BME280;34053;51.088;6.572;2022-09-30T00:12:09;100228.88;;;9.65;63.80
48244;BME280;34053;51.088;6.572;2022-09-30T00:14:39;100235.88;;;9.64;64.02
48244;BME280;34053;51.088;6.572;2022-09-30T00:17:11;100244.69;;;9.61;63.87
48244;BME280;34053;51.088;6.572;2022-09-30T00:19:41;100247.34;;;9.60;63.32
48244;BME280;34053;51.088;6.572;2022-09-30T00:22:12;100247.56;;;9.52;63.78
48244;BME280;34053;51.088;6.572;2022-09-30T00:24:43;100256.38;;;9.50;64.20
48244;BME280;34053;51.088;6.572;2022-09-30T00:27:13;100246.78;;;9.50;63.80
48244;BME280;34053;51.088;6.572;2022-09-30T00:29:47;100248.44;;;9.53;64.00
48244;BME280;34053;51.088;6.572;2022-09-30T00:32:19;100252.94;;;9.49;63.63
48244;BME280;34053;51.088;6.572;2022-09-30T00:34:49;100245.22;;;9.43;64.16
48244;BME280;34053;51.088;6.572;2022-09-30T00:37:20;100249.63;;;9.42;63.93
48244;BME280;34053;51.088;6.572;2022-09-30T00:39:51;100243.56;;;9.40;64.02
48244;BME280;34053;51.088;6.572;2022-09-30T00:42:21;100240.94;;;9.40;63.96
48244;BME280;34053;51.088;6.572;2022-09-30T00:47:34;100243.69;;;9.36;63.50
48244;BME280;34053;51.088;6.572;2022-09-30T00:55:50;100252.59;;;9.30;63.68
48244;BME280;34053;51.088;6.572;2022-09-30T00:58:30;100259.69;;;9.26;63.68
48244;BME280;34053;51.088;6.572;2022-09-30T01:01:04;100258.13;;;9.21;64.10
48244;BME280;34053;51.088;6.572;2022-09-30T01:03:41;100265.03;;;9.22;63.71
48244;BME280;34053;51.088;6.572;2022-09-30T01:06:15;100258.38;;;9.11;63.68
48244;BME280;34053;51.088;6.572;2022-09-30T01:08:46;100269.56;;;9.17;63.60
48244;BME280;34053;51.088;6.572;2022-09-30T01:11:17;100266.13;;;9.14;63.37
48244;BME280;34053;51.088;6.572;2022-09-30T01:13:51;100270.78;;;9.05;63.30
48244;BME280;34053;51.088;6.572;2022-09-30T01:32:12;100263.13;;;8.97;63.63
48244;BME280;34053;51.088;6.572;2022-09-30T01:40:31;100265.31;;;8.81;63.51
48244;BME280;34053;51.088;6.572;2022-09-30T01:43:11;100267.88;;;8.84;63.24
48244;BME280;34053;51.088;6.572;2022-09-30T01:48:35;100270.59;;;8.79;64.24
48244;BME280;34053;51.088;6.572;2022-09-30T01:51:34;100267.22;;;8.76;64.02
48244;BME280;34053;51.088;6.572;2022-09-30T01:54:20;100265.50;;;8.75;63.95
48244;BME280;34053;51.088;6.572;2022-09-30T01:57:02;100269.03;;;8.72;64.20
48244;BME280;34053;51.088;6.572;2022-09-30T01:59:38;100269.03;;;8.72;63.98
48244;BME280;34053;51.088;6.572;2022-09-30T02:02:23;100268.19;;;8.72;63.92
48244;BME280;34053;51.088;6.572;2022-09-30T02:05:00;100272.50;;;8.73;63.97
48244;BME280;34053;51.088;6.572;2022-09-30T02:07:36;100270.84;;;8.70;64.23
48244;BME280;34053;51.088;6.572;2022-09-30T02:12:46;100266.81;;;8.57;64.26
48244;BME280;34053;51.088;6.572;2022-09-30T02:15:21;100263.31;;;8.58;63.64
48244;BME280;34053;51.088;6.572;2022-09-30T02:17:59;100267.63;;;8.59;63.81
48244;BME280;34053;51.088;6.572;2022-09-30T02:20:38;100265.09;;;8.56;64.38
48244;BME280;34053;51.088;6.572;2022-09-30T02:23:27;100262.56;;;8.53;63.95
48244;BME280;34053;51.088;6.572;2022-09-30T02:26:02;100262.69;;;8.48;63.88
48244;BME280;34053;51.088;6.572;2022-09-30T02:28:40;100265.44;;;8.42;64.27
48244;BME280;34053;51.088;6.572;2022-09-30T02:31:13;100261.94;;;8.41;64.39
48244;BME280;34053;51.088;6.572;2022-09-30T02:36:44;100275.13;;;8.38;64.20
48244;BME280;34053;51.088;6.572;2022-09-30T02:39:23;100279.41;;;8.39;64.62
48244;BME280;34053;51.088;6.572;2022-09-30T02:42:03;100269.97;;;8.35;64.35
48244;BME280;34053;51.088;6.572;2022-09-30T02:44:37;100270.03;;;8.32;64.96
48244;BME280;34053;51.088;6.572;2022-09-30T02:50:04;100283.06;;;8.33;64.62
48244;BME280;34053;51.088;6.572;2022-09-30T02:58:21;100283.91;;;8.34;64.56
48244;BME280;34053;51.088;6.572;2022-09-30T03:01:01;100285.66;;;8.35;64.35
48244;BME280;34053;51.088;6.572;2022-09-30T03:06:11;100281.38;;;8.31;64.62
48244;BME280;34053;51.088;6.572;2022-09-30T03:08:44;100282.28;;;8.30;64.46
48244;BME280;34053;51.088;6.572;2022-09-30T03:11:17;100283.97;;;8.31;64.77
48244;BME280;34053;51.088;6.572;2022-09-30T03:22:42;100292.75;;;8.30;64.87
48244;BME280;34053;51.088;6.572;2022-09-30T03:30:39;100312.78;;;8.29;64.68
48244;BME280;34053;51.088;6.572;2022-09-30T03:33:22;100318.09;;;8.26;64.39
48244;BME280;34053;51.088;6.572;2022-09-30T03:44:15;100314.78;;;8.19;64.73
48244;BME280;34053;51.088;6.572;2022-09-30T03:46:53;100318.28;;;8.18;64.91
48244;BME280;34053;51.088;6.572;2022-09-30T03:49:47;100319.16;;;8.17;64.70
48244;BME280;34053;51.088;6.572;2022-09-30T03:52:20;100318.38;;;8.14;64.89
48244;BME280;34053;51.088;6.572;2022-09-30T03:54:55;100323.75;;;8.08;64.75
48244;BME280;34053;51.088;6.572;2022-09-30T03:57:29;100322.81;;;8.10;64.59
48244;BME280;34053;51.088;6.572;2022-09-30T04:00:00;100323.66;;;8.11;64.49
48244;BME280;34053;51.088;6.572;2022-09-30T04:02:31;100327.31;;;8.05;64.54
48244;BME280;34053;51.088;6.572;2022-09-30T04:05:01;100329.91;;;8.05;64.41
48244;BME280;34053;51.088;6.572;2022-09-30T04:07:33;100336.94;;;8.03;64.39
48244;BME280;34053;51.088;6.572;2022-09-30T04:10:05;100333.53;;;7.98;65.01
48244;BME280;34053;51.088;6.572;2022-09-30T04:12:36;100330.03;;;7.99;65.02
48244;BME280;34053;51.088;6.572;2022-09-30T04:15:07;100334.34;;;8.01;64.92
48244;BME280;34053;51.088;6.572;2022-09-30T04:17:37;100337.84;;;8.00;64.57
48244;BME280;34053;51.088;6.572;2022-09-30T04:20:08;100344.81;;;8.00;65.10
48244;BME280;34053;51.088;6.572;2022-09-30T04:22:38;100340.59;;;7.94;64.72
48244;BME280;34053;51.088;6.572;2022-09-30T04:25:09;100347.63;;;7.92;64.87
48244;BME280;34053;51.088;6.572;2022-09-30T04:27:40;100347.56;;;7.94;64.59
48244;BME280;34053;51.088;6.572;2022-09-30T04:30:10;100349.41;;;7.90;64.78
48244;BME280;34053;51.088;6.572;2022-09-30T04:32:42;100351.19;;;7.88;64.93
48244;BME280;34053;51.088;6.572;2022-09-30T04:35:15;100349.50;;;7.85;65.39
48244;BME280;34053;51.088;6.572;2022-09-30T04:37:46;100352.16;;;7.84;65.25
48244;BME280;34053;51.088;6.572;2022-09-30T04:40:17;100346.84;;;7.87;64.69
48244;BME280;34053;51.088;6.572;2022-09-30T04:42:47;100347.72;;;7.87;64.95
48244;BME280;34053;51.088;6.572;2022-09-30T04:45:18;100351.28;;;7.83;64.30
48244;BME280;34053;51.088;6.572;2022-09-30T04:47:51;100351.56;;;7.71;65.05
48244;BME280;34053;51.088;6.572;2022-09-30T04:50:21;100358.50;;;7.72;64.85
48244;BME280;34053;51.088;6.572;2022-09-30T04:52:53;100356.03;;;7.64;64.79
48244;BME280;34053;51.088;6.572;2022-09-30T04:55:26;100358.69;;;7.61;65.34
48244;BME280;34053;51.088;6.572;2022-09-30T04:57:56;100362.09;;;7.65;64.68
48244;BME280;34053;51.088;6.572;2022-09-30T05:00:27;100365.63;;;7.64;64.89
48244;BME280;34053;51.088;6.572;2022-09-30T05:02:57;100369.09;;;7.64;64.76
48244;BME280;34053;51.088;6.572;2022-09-30T05:05:29;100372.56;;;7.65;64.99
48244;BME280;34053;51.088;6.572;2022-09-30T05:08:04;100363.91;;;7.63;65.40
48244;BME280;34053;51.088;6.572;2022-09-30T05:10:34;100363.97;;;7.60;64.58
48244;BME280;34053;51.088;6.572;2022-09-30T05:13:05;100369.25;;;7.56;65.48
48244;BME280;34053;51.088;6.572;2022-09-30T05:15:35;100381.41;;;7.57;65.29
48244;BME280;34053;51.088;6.572;2022-09-30T05:18:06;100373.56;;;7.57;64.76
48244;BME280;34053;51.088;6.572;2022-09-30T05:20:36;100381.41;;;7.57;64.79
48244;BME280;34053;51.088;6.572;2022-09-30T05:23:07;100388.47;;;7.52;65.22
48244;BME280;34053;51.088;6.572;2022-09-30T05:25:37;100395.47;;;7.50;65.28
48244;BME280;34053;51.088;6.572;2022-09-30T05:28:09;100395.50;;;7.49;64.90
48244;BME280;34053;51.088;6.572;2022-09-30T05:30:43;100407.72;;;7.47;65.32
48244;BME280;34053;51.088;6.572;2022-09-30T05:33:14;100420.69;;;7.51;64.97
48244;BME280;34053;51.088;6.572;2022-09-30T05:35:48;100426.97;;;7.43;65.00
48244;BME280;34053;51.088;6.572;2022-09-30T05:38:18;100430.41;;;7.43;65.15
48244;BME280;34053;51.088;6.572;2022-09-30T05:40:49;100426.97;;;7.41;65.23
48244;BME280;34053;51.088;6.572;2022-09-30T05:43:19;100430.50;;;7.38;65.15
48244;BME280;34053;51.088;6.572;2022-09-30T05:45:51;100438.38;;;7.37;65.20
48244;BME280;34053;51.088;6.572;2022-09-30T05:48:24;100436.56;;;7.40;65.20
48244;BME280;34053;51.088;6.572;2022-09-30T05:50:58;100448.00;;;7.32;64.90
48244;BME280;34053;51.088;6.572;2022-09-30T05:53:31;100442.78;;;7.33;65.54
48244;BME280;34053;51.088;6.572;2022-09-30T05:56:04;100438.47;;;7.32;65.10
48244;BME280;34053;51.088;6.572;2022-09-30T05:58:35;100435.00;;;7.30;65.37
48244;BME280;34053;51.088;6.572;2022-09-30T06:01:09;100434.09;;;7.33;65.58
48244;BME280;34053;51.088;6.572;2022-09-30T06:03:43;100437.56;;;7.32;65.88
48244;BME280;34053;51.088;6.572;2022-09-30T06:06:15;100441.09;;;7.29;65.76
48244;BME280;34053;51.088;6.572;2022-09-30T06:08:46;100450.59;;;7.35;65.07
48244;BME280;34053;51.088;6.572;2022-09-30T06:11:19;100451.59;;;7.28;65.39
48244;BME280;34053;51.088;6.572;2022-09-30T06:13:54;100450.66;;;7.30;65.14
48244;BME280;34053;51.088;6.572;2022-09-30T06:16:25;100451.59;;;7.28;65.24
48244;BME280;34053;51.088;6.572;2022-09-30T06:18:56;100448.91;;;7.32;65.57
48244;BME280;34053;51.088;6.572;2022-09-30T06:21:29;100454.06;;;7.34;65.63
48244;BME280;34053;51.088;6.572;2022-09-30T06:24:02;100458.41;;;7.35;65.78
48244;BME280;34053;51.088;6.572;2022-09-30T06:26:34;100453.31;;;7.29;65.48
48244;BME280;34053;51.088;6.572;2022-09-30T06:29:04;100461.91;;;7.34;65.17
48244;BME280;34053;51.088;6.572;2022-09-30T06:31:35;100463.72;;;7.30;65.44
48244;BME280;34053;51.088;6.572;2022-09-30T06:34:06;100469.91;;;7.24;65.74
48244;BME280;34053;51.088;6.572;2022-09-30T06:36:37;100477.72;;;7.26;65.41
48244;BME280;34053;51.088;6.572;2022-09-30T06:39:08;100484.63;;;7.29;65.51
48244;BME280;34053;51.088;6.572;2022-09-30T06:41:38;100487.25;;;7.29;65.94
48244;BME280;34053;51.088;6.572;2022-09-30T06:44:12;100482.03;;;7.29;65.85
48244;BME280;34053;51.088;6.572;2022-09-30T06:46:43;100490.69;;;7.29;66.27
48244;BME280;34053;51.088;6.572;2022-09-30T06:49:14;100495.03;;;7.30;65.74
48244;BME280;34053;51.088;6.572;2022-09-30T06:51:45;100504.56;;;7.33;65.93
48244;BME280;34053;51.088;6.572;2022-09-30T06:54:15;100503.78;;;7.28;66.76
48244;BME280;34053;51.088;6.572;2022-09-30T06:56:47;100501.09;;;7.32;65.92
48244;BME280;34053;51.088;6.572;2022-09-30T06:59:18;100507.13;;;7.36;66.17
48244;BME280;34053;51.088;6.572;2022-09-30T07:01:49;100505.31;;;7.39;66.00
48244;BME280;34053;51.088;6.572;2022-09-30T07:04:19;100512.31;;;7.39;66.22
48244;BME280;34053;51.088;6.572;2022-09-30T07:06:54;100518.34;;;7.41;66.03
48244;BME280;34053;51.088;6.572;2022-09-30T07:09:26;100514.91;;;7.39;66.56
48244;BME280;34053;51.088;6.572;2022-09-30T07:11:57;100514.94;;;7.36;67.04
48244;BME280;34053;51.088;6.572;2022-09-30T07:14:27;100518.44;;;7.35;68.13
48244;BME280;34053;51.088;6.572;2022-09-30T07:17:02;100516.72;;;7.35;68.20
48244;BME280;34053;51.088;6.572;2022-09-30T07:19:34;100527.88;;;7.44;68.57
48244;BME280;34053;51.088;6.572;2022-09-30T07:22:05;100519.97;;;7.47;67.27
48244;BME280;34053;51.088;6.572;2022-09-30T07:24:56;100517.34;;;7.48;67.54
48244;BME280;34053;51.088;6.572;2022-09-30T07:27:36;100519.03;;;7.52;67.54
48244;BME280;34053;51.088;6.572;2022-09-30T07:30:07;100523.31;;;7.55;67.65
48244;BME280;34053;51.088;6.572;2022-09-30T07:32:38;100531.13;;;7.56;68.00
48244;BME280;34053;51.088;6.572;2022-09-30T07:35:09;100530.22;;;7.59;68.98
48244;BME280;34053;51.088;6.572;2022-09-30T07:37:39;100534.41;;;7.68;68.47
48244;BME280;34053;51.088;6.572;2022-09-30T07:40:10;100535.34;;;7.65;68.84
48244;BME280;34053;51.088;6.572;2022-09-30T07:42:43;100534.38;;;7.69;68.63
48244;BME280;34053;51.088;6.572;2022-09-30T07:45:14;100533.47;;;7.72;69.05
48244;BME280;34053;51.088;6.572;2022-09-30T07:47:49;100530.75;;;7.78;68.67
48244;BME280;34053;51.088;6.572;2022-09-30T07:50:19;100529.03;;;7.77;69.99
48244;BME280;34053;51.088;6.572;2022-09-30T07:52:52;100534.97;;;7.85;69.32
48244;BME280;34053;51.088;6.572;2022-09-30T07:55:22;100530.56;;;7.87;69.84
48244;BME280;34053;51.088;6.572;2022-09-30T07:57:54;100533.94;;;7.93;69.59
48244;BME280;34053;51.088;6.572;2022-09-30T08:00:24;100535.69;;;7.94;71.04
48244;BME280;34053;51.088;6.572;2022-09-30T08:02:55;100537.31;;;7.98;70.47
48244;BME280;34053;51.088;6.572;2022-09-30T08:05:26;100533.72;;;8.05;69.77
48244;BME280;34053;51.088;6.572;2022-09-30T08:07:57;100544.09;;;8.08;70.73
48244;BME280;34053;51.088;6.572;2022-09-30T08:10:27;100541.34;;;8.14;71.08
48244;BME280;34053;51.088;6.572;2022-09-30T08:13:05;100542.19;;;8.16;71.99
48244;BME280;34053;51.088;6.572;2022-09-30T08:15:36;100541.25;;;8.21;71.56
48244;BME280;34053;51.088;6.572;2022-09-30T08:18:06;100537.66;;;8.26;72.26
48244;BME280;34053;51.088;6.572;2022-09-30T08:20:37;100532.41;;;8.28;73.97
48244;BME280;34053;51.088;6.572;2022-09-30T08:23:07;100533.16;;;8.33;74.08
48244;BME280;34053;51.088;6.572;2022-09-30T08:25:39;100533.06;;;8.38;72.70
48244;BME280;34053;51.088;6.572;2022-09-30T08:28:10;100537.34;;;8.42;73.89
48244;BME280;34053;51.088;6.572;2022-09-30T08:30:42;100532.84;;;8.48;74.90
48244;BME280;34053;51.088;6.572;2022-09-30T08:33:13;100531.88;;;8.54;74.74
48244;BME280;34053;51.088;6.572;2022-09-30T08:35:43;100526.53;;;8.59;75.24
48244;BME280;34053;51.088;6.572;2022-09-30T08:38:14;100536.97;;;8.60;74.24
48244;BME280;34053;51.088;6.572;2022-09-30T08:41:01;100532.25;;;8.76;76.03
48244;BME280;34053;51.088;6.572;2022-09-30T08:43:59;100533.84;;;8.84;76.81
48244;BME280;34053;51.088;6.572;2022-09-30T08:52:18;100542.31;;;8.95;75.61
48244;BME280;34053;51.088;6.572;2022-09-30T08:54:55;100542.00;;;9.07;76.93
48244;BME280;34053;51.088;6.572;2022-09-30T08:57:35;100541.84;;;9.13;77.05
48244;BME280;34053;51.088;6.572;2022-09-30T09:00:12;100538.28;;;9.18;77.51
48244;BME280;34053;51.088;6.572;2022-09-30T09:02:52;100539.00;;;9.24;78.20
48244;BME280;34053;51.088;6.572;2022-09-30T09:16:41;100544.31;;;9.56;77.93
48244;BME280;34053;51.088;6.572;2022-09-30T09:19:23;100536.88;;;9.73;79.10
48244;BME280;34053;51.088;6.572;2022-09-30T09:21:56;100545.63;;;9.72;77.98
48244;BME280;34053;51.088;6.572;2022-09-30T09:30:14;100535.13;;;10.07;78.98
48244;BME280;34053;51.088;6.572;2022-09-30T09:32:54;100534.22;;;10.06;78.33
48244;BME280;34053;51.088;6.572;2022-09-30T09:41:35;100529.31;;;10.27;78.94
48244;BME280;34053;51.088;6.572;2022-09-30T09:44:34;100533.59;;;10.30;79.07
48244;BME280;34053;51.088;6.572;2022-09-30T09:47:10;100527.25;;;10.38;79.35
48244;BME280;34053;51.088;6.572;2022-09-30T09:49:53;100535.66;;;10.50;78.54
48244;BME280;34053;51.088;6.572;2022-09-30T09:55:18;100530.97;;;10.61;77.79
48244;BME280;34053;51.088;6.572;2022-09-30T09:58:10;100526.41;;;10.66;78.36
48244;BME280;34053;51.088;6.572;2022-09-30T10:00:46;100526.16;;;10.76;78.79
48244;BME280;34053;51.088;6.572;2022-09-30T10:03:17;100531.28;;;10.79;77.92
48244;BME280;34053;51.088;6.572;2022-09-30T10:06:14;100528.50;;;10.83;78.07
48244;BME280;34053;51.088;6.572;2022-09-30T10:08:56;100528.28;;;10.91;77.39
48244;BME280;34053;51.088;6.572;2022-09-30T10:11:26;100521.94;;;10.98;77.34
48244;BME280;34053;51.088;6.572;2022-09-30T10:13:59;100519.16;;;11.03;76.56
48244;BME280;34053;51.088;6.572;2022-09-30T10:16:32;100515.56;;;11.06;76.32
48244;BME280;34053;51.088;6.572;2022-09-30T10:19:20;100520.44;;;11.18;74.74
48244;BME280;34053;51.088;6.572;2022-09-30T10:24:38;100521.94;;;11.25;74.83
48244;BME280;34053;51.088;6.572;2022-09-30T10:27:30;100517.09;;;11.40;75.09
48244;BME280;34053;51.088;6.572;2022-09-30T10:30:01;100509.19;;;11.40;75.08
48244;BME280;34053;51.088;6.572;2022-09-30T10:32:32;100514.91;;;11.53;74.09
48244;BME280;34053;51.088;6.572;2022-09-30T10:35:05;100519.19;;;11.55;72.28
48244;BME280;34053;51.088;6.572;2022-09-30T10:37:36;100516.56;;;11.55;72.59
48244;BME280;34053;51.088;6.572;2022-09-30T10:40:11;100514.66;;;11.60;73.29
48244;BME280;34053;51.088;6.572;2022-09-30T10:42:46;100520.66;;;11.64;73.04
48244;BME280;34053;51.088;6.572;2022-09-30T10:45:20;100520.53;;;11.67;72.77
48244;BME280;34053;51.088;6.572;2022-09-30T10:47:54;100524.78;;;11.71;72.72
48244;BME280;34053;51.088;6.572;2022-09-30T10:50:25;100520.38;;;11.72;73.45
48244;BME280;34053;51.088;6.572;2022-09-30T10:53:27;100522.28;;;11.92;72.65
48244;BME280;34053;51.088;6.572;2022-09-30T10:55:59;100519.66;;;11.92;72.81
48244;BME280;34053;51.088;6.572;2022-09-30T11:01:15;100519.19;;;12.06;71.28
48244;BME280;34053;51.088;6.572;2022-09-30T11:04:12;100526.84;;;12.12;70.68
48244;BME280;34053;51.088;6.572;2022-09-30T11:06:55;100519.72;;;12.16;69.78
48244;BME280;34053;51.088;6.572;2022-09-30T11:09:35;100528.16;;;12.24;70.06
48244;BME280;34053;51.088;6.572;2022-09-30T11:15:11;100537.28;;;12.39;69.62
48244;BME280;34053;51.088;6.572;2022-09-30T11:17:58;100531.38;;;12.32;70.15
48244;BME280;34053;51.088;6.572;2022-09-30T11:20:38;100541.25;;;12.73;67.66
48244;BME280;34053;51.088;6.572;2022-09-30T11:28:44;100531.47;;;12.99;66.30
48244;BME280;34053;51.088;6.572;2022-09-30T11:31:30;100538.56;;;12.97;66.19
48244;BME280;34053;51.088;6.572;2022-09-30T11:42:45;100522.41;;;13.49;64.01
48244;BME280;34053;51.088;6.572;2022-09-30T11:48:13;100508.59;;;14.04;61.40
48244;BME280;34053;51.088;6.572;2022-09-30T11:51:13;100509.41;;;14.06;60.87
48244;BME280;34053;51.088;6.572;2022-09-30T12:05:05;100499.28;;;14.73;56.31
48244;BME280;34053;51.088;6.572;2022-09-30T12:07:46;100497.72;;;14.69;57.98
48244;BME280;34053;51.088;6.572;2022-09-30T12:10:26;100496.28;;;14.81;58.90
48244;BME280;34053;51.088;6.572;2022-09-30T12:13:33;100500.75;;;14.98;58.08
48244;BME280;34053;51.088;6.572;2022-09-30T12:16:16;100497.66;;;15.07;56.71
48244;BME280;34053;51.088;6.572;2022-09-30T12:19:12;100493.34;;;15.05;57.17
48244;BME280;34053;51.088;6.572;2022-09-30T12:22:21;100486.56;;;15.36;55.26
48244;BME280;34053;51.088;6.572;2022-09-30T12:24:59;100486.84;;;15.47;54.10
48244;BME280;34053;51.088;6.572;2022-09-30T12:28:05;100488.16;;;15.56;55.47
48244;BME280;34053;51.088;6.572;2022-09-30T12:42:41;100472.53;;;16.02;55.74
48244;BME280;34053;51.088;6.572;2022-09-30T12:48:10;100461.19;;;16.16;54.93
48244;BME280;34053;51.088;6.572;2022-09-30T12:50:48;100465.16;;;16.41;53.15
48244;BME280;34053;51.088;6.572;2022-09-30T12:53:34;100464.47;;;16.38;53.50
48244;BME280;34053;51.088;6.572;2022-09-30T12:56:09;100461.47;;;16.60;49.06
48244;BME280;34053;51.088;6.572;2022-09-30T12:58:47;100458.91;;;16.42;50.29
48244;BME280;34053;51.088;6.572;2022-09-30T13:01:30;100449.50;;;16.68;48.07
48244;BME280;34053;51.088;6.572;2022-09-30T13:14:37;100447.56;;;17.03;48.18
48244;BME280;34053;51.088;6.572;2022-09-30T13:19:47;100440.47;;;17.03;49.88
48244;BME280;34053;51.088;6.572;2022-09-30T13:25:02;100434.34;;;17.17;49.03
48244;BME280;34053;51.088;6.572;2022-09-30T13:35:48;100426.63;;;17.43;49.23
48244;BME280;34053;51.088;6.572;2022-09-30T13:38:21;100436.09;;;17.33;48.84
48244;BME280;34053;51.088;6.572;2022-09-30T13:43:46;100429.72;;;17.21;48.28
48244;BME280;34053;51.088;6.572;2022-09-30T13:46:27;100437.50;;;17.24;48.42
48244;BME280;34053;51.088;6.572;2022-09-30T13:51:55;100417.56;;;17.47;47.47
48244;BME280;34053;51.088;6.572;2022-09-30T13:54:38;100426.34;;;17.48;46.49
48244;BME280;34053;51.088;6.572;2022-09-30T13:57:22;100429.00;;;17.48;48.25
48244;BME280;34053;51.088;6.572;2022-09-30T14:00:12;100421.44;;;17.56;48.47
48244;BME280;34053;51.088;6.572;2022-09-30T14:03:19;100415.84;;;17.60;47.59
48244;BME280;34053;51.088;6.572;2022-09-30T14:06:10;100408.47;;;17.51;49.53
48244;BME280;34053;51.088;6.572;2022-09-30T14:09:02;100410.00;;;17.55;48.41
48244;BME280;34053;51.088;6.572;2022-09-30T14:15:07;100402.59;;;17.60;48.93
48244;BME280;34053;51.088;6.572;2022-09-30T14:18:21;100404.19;;;17.77;46.81
48244;BME280;34053;51.088;6.572;2022-09-30T14:24:11;100393.13;;;17.71;48.29
48244;BME280;34053;51.088;6.572;2022-09-30T14:27:18;100388.56;;;17.87;46.17
48244;BME280;34053;51.088;6.572;2022-09-30T14:29:59;100393.78;;;17.74;45.10
48244;BME280;34053;51.088;6.572;2022-09-30T14:35:16;100393.78;;;17.74;46.46
48244;BME280;34053;51.088;6.572;2022-09-30T14:37:51;100381.47;;;17.73;46.61
48244;BME280;34053;51.088;6.572;2022-09-30T14:40:26;100384.00;;;17.75;46.17
48244;BME280;34053;51.088;6.572;2022-09-30T14:43:05;100386.66;;;17.75;45.47
48244;BME280;34053;51.088;6.572;2022-09-30T14:45:38;100393.19;;;17.69;45.12
48244;BME280;34053;51.088;6.572;2022-09-30T14:48:18;100379.63;;;17.74;45.34
48244;BME280;34053;51.088;6.572;2022-09-30T14:51:05;100385.22;;;17.69;45.75
48244;BME280;34053;51.088;6.572;2022-09-30T14:53:51;100378.59;;;17.62;47.15
48244;BME280;34053;51.088;6.572;2022-09-30T14:56:27;100374.16;;;17.62;46.37
48244;BME280;34053;51.088;6.572;2022-09-30T14:59:22;100382.41;;;17.58;46.35
48244;BME280;34053;51.088;6.572;2022-09-30T15:02:13;100376.44;;;17.54;45.21
48244;BME280;34053;51.088;6.572;2022-09-30T15:04:51;100368.69;;;17.37;46.19
48244;BME280;34053;51.088;6.572;2022-09-30T15:07:23;100368.47;;;17.40;46.42
48244;BME280;34053;51.088;6.572;2022-09-30T15:10:00;100369.06;;;17.30;45.82
48244;BME280;34053;51.088;6.572;2022-09-30T15:12:31;100368.28;;;17.28;46.70
48244;BME280;34053;51.088;6.572;2022-09-30T15:15:34;100369.50;;;17.37;47.48
48244;BME280;34053;51.088;6.572;2022-09-30T15:21:18;100358.34;;;17.18;46.71
48244;BME280;34053;51.088;6.572;2022-09-30T15:23:51;100363.91;;;17.13;46.92
48244;BME280;34053;51.088;6.572;2022-09-30T15:26:26;100361.28;;;17.13;46.73
48244;BME280;34053;51.088;6.572;2022-09-30T15:28:56;100371.00;;;17.12;48.05
48244;BME280;34053;51.088;6.572;2022-09-30T15:31:31;100365.03;;;17.09;46.52
48244;BME280;34053;51.088;6.572;2022-09-30T15:34:20;100370.41;;;16.93;47.13
48244;BME280;34053;51.088;6.572;2022-09-30T15:36:57;100373.47;;;16.85;46.73
48244;BME280;34053;51.088;6.572;2022-09-30T15:39:30;100375.22;;;16.70;46.96
48244;BME280;34053;51.088;6.572;2022-09-30T15:45:02;100360.31;;;16.83;48.96
48244;BME280;34053;51.088;6.572;2022-09-30T15:48:33;100364.56;;;16.72;49.05
48244;BME280;34053;51.088;6.572;2022-09-30T15:54:23;100366.31;;;16.41;47.55
48244;BME280;34053;51.088;6.572;2022-09-30T15:56:54;100367.94;;;16.43;48.62
48244;BME280;34053;51.088;6.572;2022-09-30T15:59:58;100369.38;;;16.49;49.15
48244;BME280;34053;51.088;6.572;2022-09-30T16:02:34;100372.84;;;16.35;48.71
48244;BME280;34053;51.088;6.572;2022-09-30T16:05:05;100367.44;;;16.36;49.80
48244;BME280;34053;51.088;6.572;2022-09-30T16:07:40;100368.22;;;16.23;49.58
48244;BME280;34053;51.088;6.572;2022-09-30T16:10:18;100372.84;;;16.19;49.50
48244;BME280;34053;51.088;6.572;2022-09-30T16:12:50;100373.09;;;16.14;49.84
48244;BME280;34053;51.088;6.572;2022-09-30T16:15:20;100371.41;;;15.97;49.74
48244;BME280;34053;51.088;6.572;2022-09-30T16:17:51;100385.22;;;16.02;49.97
48244;BME280;34053;51.088;6.572;2022-09-30T16:20:26;100384.19;;;16.05;50.49
48244;BME280;34053;51.088;6.572;2022-09-30T16:22:56;100374.63;;;16.02;50.76
48244;BME280;34053;51.088;6.572;2022-09-30T16:25:32;100385.66;;;15.95;50.78
48244;BME280;34053;51.088;6.572;2022-09-30T16:28:24;100387.78;;;15.88;50.93
48244;BME280;34053;51.088;6.572;2022-09-30T16:30:58;100382.63;;;15.85;50.81
48244;BME280;34053;51.088;6.572;2022-09-30T16:33:36;100388.84;;;15.84;51.50
48244;BME280;34053;51.088;6.572;2022-09-30T16:36:17;100380.94;;;15.84;51.53
48244;BME280;34053;51.088;6.572;2022-09-30T16:38:48;100385.50;;;15.80;51.80
48244;BME280;34053;51.088;6.572;2022-09-30T16:41:19;100376.09;;;15.74;51.31
48244;BME280;34053;51.088;6.572;2022-09-30T16:43:49;100383.09;;;15.76;51.88
48244;BME280;34053;51.088;6.572;2022-09-30T16:46:23;100378.59;;;15.78;52.01
48244;BME280;34053;51.088;6.572;2022-09-30T16:48:54;100381.06;;;15.81;52.14
48244;BME280;34053;51.088;6.572;2022-09-30T16:51:24;100373.19;;;15.79;52.18
48244;BME280;34053;51.088;6.572;2022-09-30T16:53:56;100379.72;;;15.73;52.36
48244;BME280;34053;51.088;6.572;2022-09-30T16:56:26;100371.53;;;15.78;52.58
48244;BME280;34053;51.088;6.572;2022-09-30T16:59:00;100360.22;;;15.74;52.87
48244;BME280;34053;51.088;6.572;2022-09-30T17:01:41;100369.13;;;15.73;52.94
48244;BME280;34053;51.088;6.572;2022-09-30T17:04:15;100371.94;;;15.70;53.24
48244;BME280;34053;51.088;6.572;2022-09-30T17:06:55;100377.56;;;15.64;53.51